createdAt,value
2018-09-14T10:44:09.354Z,23.10
2018-09-14T10:46:48.739Z,23.30
2018-09-14T10:49:16.910Z,23.20
2018-09-14T10:51:44.927Z,23.10
2018-09-14T10:54:13.029Z,22.90
2018-09-14T10:56:41.150Z,22.50
2018-09-14T10:59:09.355Z,22.00
2018-09-14T11:01:37.355Z,21.70
2018-09-14T11:04:05.418Z,21.30
2018-09-14T11:06:33.549Z,21.20
2018-09-14T11:09:01.527Z,21.30
2018-09-14T11:11:29.595Z,21.10
2018-09-14T11:13:58.026Z,21.20
2018-09-14T11:16:26.044Z,21.70
2018-09-14T11:18:54.397Z,22.10
2018-09-14T11:21:22.385Z,22.20
2018-09-14T11:23:50.442Z,21.90
2018-09-14T11:26:18.659Z,22.00
2018-09-14T11:28:47.003Z,22.10
2018-09-14T11:31:15.059Z,22.30
2018-09-14T11:33:43.482Z,22.20
2018-09-14T11:36:11.530Z,22.10
2018-09-14T11:38:39.587Z,21.90
2018-09-14T11:41:07.718Z,21.70
2018-09-14T11:43:35.973Z,21.80
2018-09-14T11:46:04.156Z,21.80
2018-09-14T11:48:32.381Z,22.00
2018-09-14T11:51:00.393Z,21.90
2018-09-14T11:53:28.454Z,22.20
2018-09-14T11:55:56.511Z,22.40
2018-09-14T11:58:24.705Z,22.60
2018-09-14T12:00:53.178Z,23.00
2018-09-14T12:03:21.683Z,23.10
2018-09-14T12:05:49.711Z,23.00
2018-09-14T12:08:17.728Z,23.10
2018-09-14T12:10:45.820Z,23.30
2018-09-14T12:13:13.966Z,23.40
2018-09-14T12:15:42.018Z,23.60
2018-09-14T12:18:10.299Z,23.60
2018-09-14T12:20:38.618Z,23.90
2018-09-14T12:23:06.731Z,24.00
2018-09-14T12:25:37.378Z,23.70
2018-09-14T12:28:06.171Z,23.70
2018-09-14T12:30:34.464Z,24.10
2018-09-14T12:33:02.603Z,24.30
2018-09-14T12:35:30.749Z,24.50
2018-09-14T12:37:59.008Z,24.50
2018-09-14T12:40:27.218Z,24.30
2018-09-14T12:42:55.300Z,24.10
2018-09-14T12:45:23.403Z,23.90
2018-09-14T12:47:51.494Z,24.10
2018-09-14T12:50:19.613Z,24.50
2018-09-14T12:52:47.777Z,24.60
2018-09-14T12:55:16.262Z,24.60
2018-09-14T12:57:44.360Z,24.80
2018-09-14T13:00:13.436Z,24.70
2018-09-14T13:02:41.586Z,24.20
2018-09-14T13:05:09.603Z,23.90
2018-09-14T13:07:37.662Z,23.60
2018-09-14T13:10:06.767Z,23.30
2018-09-14T13:12:34.790Z,22.70
2018-09-14T13:15:02.855Z,22.50
2018-09-14T13:17:30.998Z,22.50
2018-09-14T13:19:59.275Z,22.60
2018-09-14T13:22:27.305Z,22.80
2018-09-14T13:24:55.801Z,23.30
2018-09-14T13:27:23.951Z,23.60
2018-09-14T13:29:52.019Z,23.70
2018-09-14T13:32:21.245Z,24.00
2018-09-14T13:34:49.314Z,24.20
2018-09-14T13:37:17.397Z,24.30
2018-09-14T13:39:46.478Z,24.10
2018-09-14T13:42:14.514Z,23.70
2018-09-14T13:44:42.576Z,23.40
2018-09-14T13:47:10.694Z,23.40
2018-09-14T13:49:38.767Z,23.40
2018-09-14T13:52:06.855Z,23.30
2018-09-14T13:54:35.037Z,23.40
2018-09-14T13:57:03.126Z,23.40
2018-09-14T13:59:31.163Z,23.50
2018-09-14T14:01:59.523Z,23.60
2018-09-14T14:04:27.803Z,23.70
2018-09-14T14:06:55.847Z,23.70
2018-09-14T14:09:24.159Z,23.70
2018-09-14T14:11:52.292Z,23.70
2018-09-14T14:14:20.384Z,23.60
2018-09-14T14:16:48.560Z,23.70
2018-09-14T14:19:16.528Z,23.60
2018-09-14T14:21:44.588Z,23.40
2018-09-14T14:24:12.639Z,23.40
2018-09-14T14:26:40.695Z,23.40
2018-09-14T14:29:08.799Z,23.40
2018-09-14T14:31:37.211Z,23.40
2018-09-14T15:12:18.267Z,25.90
2018-09-14T15:17:14.258Z,30.80
2018-09-14T15:19:42.366Z,31.20
2018-09-14T15:22:10.497Z,36.80
2018-09-14T15:24:38.565Z,32.50
2018-09-14T15:27:06.586Z,29.30
2018-09-14T15:29:34.795Z,29.70
2018-09-14T15:32:02.905Z,30.30
2018-09-14T15:34:30.978Z,31.00
2018-09-14T15:46:51.519Z,27.10
2018-09-14T15:49:19.675Z,25.40
2018-09-14T15:51:47.721Z,24.30
2018-09-14T15:54:15.859Z,23.30
2018-09-14T15:56:44.141Z,22.60
2018-09-14T15:59:12.350Z,22.20
2018-09-14T16:01:40.671Z,21.90
2018-09-14T16:04:09.630Z,21.70
2018-09-14T16:06:37.689Z,21.50
2018-09-14T16:09:08.574Z,21.40
2018-09-14T16:11:36.689Z,21.30
2018-09-14T16:14:04.820Z,21.20
2018-09-14T16:16:33.375Z,21.20
2018-09-14T16:19:01.623Z,21.10
2018-09-14T16:21:29.823Z,21.00
2018-09-14T16:23:57.902Z,21.00
2018-09-14T16:26:25.970Z,20.90
2018-09-14T16:28:54.184Z,20.60
2018-09-14T16:31:22.462Z,20.40
2018-09-14T16:33:50.563Z,20.20
2018-09-14T16:36:18.647Z,20.00
2018-09-14T16:38:47.119Z,19.80
2018-09-14T16:41:15.235Z,19.70
2018-09-14T16:43:43.267Z,19.70
2018-09-14T16:46:11.537Z,19.70
2018-09-14T16:48:39.953Z,19.80
2018-09-14T16:51:07.968Z,19.90
2018-09-14T16:53:36.531Z,19.80
2018-09-14T16:56:04.707Z,19.80
2018-09-14T17:40:14.231Z,24.90
2018-09-14T18:09:46.766Z,24.00
2018-09-14T18:12:14.931Z,22.40
2018-09-14T18:14:42.937Z,21.20
2018-09-14T18:17:11.299Z,20.40
2018-09-14T18:19:39.350Z,19.70
2018-09-14T18:22:07.407Z,19.20
2018-09-14T18:24:36.019Z,18.80
2018-09-14T18:27:04.095Z,18.60
2018-09-14T18:29:32.313Z,18.20
2018-09-14T18:32:00.453Z,18.00
2018-09-14T18:34:29.407Z,17.80
2018-09-14T18:36:58.298Z,17.60
2018-09-14T18:39:26.314Z,17.50
2018-09-14T18:41:55.274Z,17.40
2018-09-14T18:44:23.451Z,17.30
2018-09-14T18:46:51.650Z,17.30
2018-09-14T18:49:19.671Z,17.20
2018-09-14T18:51:47.727Z,17.10
2018-09-14T18:54:16.193Z,16.90
2018-09-14T18:56:44.626Z,16.80
2018-09-14T18:59:12.762Z,16.80
2018-09-14T19:01:40.976Z,16.70
2018-09-14T19:04:09.016Z,16.60
2018-09-14T19:06:37.731Z,16.60
2018-09-14T19:09:07.916Z,16.40
2018-09-14T19:11:37.156Z,16.30
2018-09-14T19:14:05.206Z,16.20
2018-09-14T19:16:34.115Z,16.20
2018-09-14T19:19:02.389Z,16.20
2018-09-14T19:21:30.502Z,16.10
2018-09-14T19:23:58.603Z,16.00
2018-09-14T19:26:26.811Z,16.00
2018-09-14T19:28:54.919Z,15.90
2018-09-14T19:31:23.083Z,15.80
2018-09-14T19:33:51.638Z,15.80
2018-09-14T19:36:19.913Z,15.80
2018-09-14T19:38:48.067Z,15.70
2018-09-14T19:41:16.168Z,15.70
2018-09-14T19:43:44.203Z,15.70
2018-09-14T19:46:13.310Z,15.60
2018-09-14T19:48:41.703Z,15.60
2018-09-14T19:51:09.724Z,15.60
2018-09-14T19:53:37.740Z,15.50
2018-09-14T19:56:05.804Z,15.50
2018-09-14T19:58:33.987Z,15.50
2018-09-14T20:01:02.152Z,15.50
2018-09-14T20:03:30.323Z,15.50
2018-09-14T20:05:58.660Z,15.40
2018-09-14T20:08:26.746Z,15.40
2018-09-14T20:14:26.106Z,15.40
2018-09-14T20:16:54.216Z,15.30
2018-09-14T20:19:22.256Z,15.30
2018-09-14T20:21:50.703Z,15.30
2018-09-14T20:24:18.927Z,15.30
2018-09-14T20:26:47.038Z,15.40
2018-09-14T20:29:15.089Z,15.50
2018-09-14T20:31:43.324Z,15.70
2018-09-14T20:34:11.321Z,15.80
2018-09-14T20:36:39.481Z,15.90
2018-09-14T20:39:09.131Z,16.10
2018-09-14T20:41:37.237Z,16.10
2018-09-14T20:44:05.418Z,16.20
2018-09-14T20:46:33.612Z,16.20
2018-09-14T20:49:01.648Z,16.30
2018-09-14T20:51:29.719Z,16.30
2018-09-14T20:53:58.257Z,16.40
2018-09-14T20:56:26.386Z,16.30
2018-09-14T20:58:54.490Z,16.40
2018-09-14T21:01:22.730Z,16.30
2018-09-14T21:03:50.769Z,16.30
2018-09-14T21:06:18.887Z,16.30
2018-09-14T21:08:46.947Z,16.20
2018-09-14T21:11:15.130Z,16.10
2018-09-14T21:13:43.299Z,16.10
2018-09-14T21:16:12.390Z,16.10
2018-09-14T21:18:40.407Z,16.00
2018-09-14T21:21:08.840Z,16.00
2018-09-14T21:23:36.966Z,16.00
2018-09-14T21:26:05.339Z,16.00
2018-09-14T21:28:33.358Z,16.10
2018-09-14T21:31:01.890Z,16.10
2018-09-14T21:33:29.914Z,16.20
2018-09-14T21:35:58.166Z,16.20
2018-09-14T21:38:26.355Z,16.30
2018-09-14T21:40:55.283Z,16.30
2018-09-14T21:43:23.597Z,16.40
2018-09-14T21:45:52.277Z,16.30
2018-09-14T21:48:20.388Z,16.40
2018-09-14T21:50:48.418Z,16.40
2018-09-14T21:53:16.614Z,16.40
2018-09-14T21:55:45.620Z,16.50
2018-09-14T21:58:13.709Z,16.50
2018-09-14T22:00:48.331Z,16.60
2018-09-14T22:03:16.341Z,16.60
2018-09-14T22:05:44.339Z,16.60
2018-09-14T22:08:12.423Z,16.60
2018-09-14T22:10:40.431Z,16.60
2018-09-14T22:13:08.490Z,16.60
2018-09-14T22:15:36.543Z,16.60
2018-09-14T22:18:05.011Z,16.60
2018-09-14T22:20:33.103Z,16.60
2018-09-14T22:23:01.387Z,16.60
2018-09-14T22:25:29.459Z,16.50
2018-09-14T22:27:57.708Z,16.50
2018-09-14T22:30:25.783Z,16.50
2018-09-14T22:32:53.959Z,16.50
2018-09-14T22:35:22.075Z,16.50
2018-09-14T22:37:50.218Z,16.40
2018-09-14T22:40:18.291Z,16.50
2018-09-14T22:42:46.465Z,16.50
2018-09-14T22:45:14.553Z,16.40
2018-09-14T22:47:42.618Z,16.50
2018-09-14T22:50:10.710Z,16.40
2018-09-14T22:52:39.140Z,16.40
2018-09-14T22:55:07.323Z,16.40
2018-09-14T22:57:35.374Z,16.50
2018-09-14T23:00:03.666Z,16.50
2018-09-14T23:02:31.822Z,16.50
2018-09-14T23:04:59.895Z,16.50
2018-09-14T23:07:28.303Z,16.50
2018-09-14T23:09:56.334Z,16.50
2018-09-14T23:12:24.383Z,16.50
2018-09-14T23:14:52.731Z,16.50
2018-09-14T23:17:20.758Z,16.50
2018-09-14T23:19:49.174Z,16.60
2018-09-14T23:22:17.382Z,16.60
2018-09-14T23:24:45.415Z,16.60
2018-09-14T23:27:14.538Z,16.60
2018-09-14T23:29:42.707Z,16.50
2018-09-14T23:32:10.730Z,16.50
2018-09-14T23:34:38.766Z,16.50
2018-09-14T23:37:06.822Z,16.50
2018-09-14T23:39:34.864Z,16.50
2018-09-14T23:42:02.917Z,16.50
2018-09-14T23:44:30.979Z,16.50
2018-09-14T23:46:59.084Z,16.40
2018-09-14T23:49:27.132Z,16.40
2018-09-14T23:51:55.295Z,16.30
2018-09-14T23:54:23.422Z,16.20
2018-09-14T23:56:51.506Z,16.20
2018-09-14T23:59:19.865Z,16.00
